sensor_id;sensor_type;location;lat;lon;timestamp;P1;durP1;ratioP1;P2;durP2;ratioP2
66353;SDS011;53150;48.296;16.452;2023-03-01T00:02:40;25.50;;;12.77;;
66353;SDS011;53150;48.296;16.452;2023-03-01T00:05:06;24.77;;;13.32;;
66353;SDS011;53150;48.296;16.452;2023-03-01T00:07:32;21.45;;;11.73;;
66353;SDS011;53150;48.296;16.452;2023-03-01T00:09:58;22.20;;;12.90;;
66353;SDS011;53150;48.296;16.452;2023-03-01T00:12:24;29.30;;;13.85;;
66353;SDS011;53150;48.296;16.452;2023-03-01T00:14:50;27.25;;;13.43;;
66353;SDS011;53150;48.296;16.452;2023-03-01T00:17:16;26.80;;;13.65;;
66353;SDS011;53150;48.296;16.452;2023-03-01T00:19:42;28.70;;;14.00;;
66353;SDS011;53150;48.296;16.452;2023-03-01T00:22:08;26.23;;;14.48;;
66353;SDS011;53150;48.296;16.452;2023-03-01T00:24:34;26.00;;;13.90;;
66353;SDS011;53150;48.296;16.452;2023-03-01T00:27:00;24.40;;;12.65;;
66353;SDS011;53150;48.296;16.452;2023-03-01T00:29:26;24.90;;;13.07;;
66353;SDS011;53150;48.296;16.452;2023-03-01T00:31:52;27.20;;;13.00;;
66353;SDS011;53150;48.296;16.452;2023-03-01T00:34:18;27.23;;;13.13;;
66353;SDS011;53150;48.296;16.452;2023-03-01T00:36:44;21.98;;;13.57;;
66353;SDS011;53150;48.296;16.452;2023-03-01T00:39:11;24.42;;;13.20;;
66353;SDS011;53150;48.296;16.452;2023-03-01T00:41:38;23.70;;;13.00;;
66353;SDS011;53150;48.296;16.452;2023-03-01T00:44:05;27.02;;;14.45;;
66353;SDS011;53150;48.296;16.452;2023-03-01T00:46:31;24.70;;;13.57;;
66353;SDS011;53150;48.296;16.452;2023-03-01T00:48:58;25.95;;;13.13;;
66353;SDS011;53150;48.296;16.452;2023-03-01T00:51:27;20.45;;;12.50;;
66353;SDS011;53150;48.296;16.452;2023-03-01T00:53:54;24.65;;;13.63;;
66353;SDS011;53150;48.296;16.452;2023-03-01T00:56:21;27.83;;;14.00;;
66353;SDS011;53150;48.296;16.452;2023-03-01T00:58:47;26.15;;;13.07;;
66353;SDS011;53150;48.296;16.452;2023-03-01T01:01:18;24.88;;;12.65;;
66353;SDS011;53150;48.296;16.452;2023-03-01T01:03:52;24.17;;;12.43;;
66353;SDS011;53150;48.296;16.452;2023-03-01T01:06:19;26.33;;;12.88;;
66353;SDS011;53150;48.296;16.452;2023-03-01T01:08:47;28.98;;;13.85;;
66353;SDS011;53150;48.296;16.452;2023-03-01T01:11:13;23.27;;;13.18;;
66353;SDS011;53150;48.296;16.452;2023-03-01T01:13:39;25.13;;;14.18;;
66353;SDS011;53150;48.296;16.452;2023-03-01T01:16:06;23.38;;;12.95;;
66353;SDS011;53150;48.296;16.452;2023-03-01T01:18:32;27.88;;;13.77;;
66353;SDS011;53150;48.296;16.452;2023-03-01T01:21:03;25.70;;;12.52;;
66353;SDS011;53150;48.296;16.452;2023-03-01T01:23:29;27.73;;;13.68;;
66353;SDS011;53150;48.296;16.452;2023-03-01T01:25:55;25.73;;;13.27;;
66353;SDS011;53150;48.296;16.452;2023-03-01T01:28:21;25.80;;;13.63;;
66353;SDS011;53150;48.296;16.452;2023-03-01T01:30:47;26.33;;;13.48;;
66353;SDS011;53150;48.296;16.452;2023-03-01T01:33:13;26.45;;;12.80;;
66353;SDS011;53150;48.296;16.452;2023-03-01T01:35:39;26.88;;;13.45;;
66353;SDS011;53150;48.296;16.452;2023-03-01T01:38:05;31.30;;;13.23;;
66353;SDS011;53150;48.296;16.452;2023-03-01T01:40:31;24.20;;;13.05;;
66353;SDS011;53150;48.296;16.452;2023-03-01T01:42:57;25.15;;;12.90;;
66353;SDS011;53150;48.296;16.452;2023-03-01T01:45:32;24.70;;;13.93;;
66353;SDS011;53150;48.296;16.452;2023-03-01T01:48:03;26.30;;;12.10;;
66353;SDS011;53150;48.296;16.452;2023-03-01T01:50:30;20.33;;;12.25;;
66353;SDS011;53150;48.296;16.452;2023-03-01T01:53:03;25.85;;;12.93;;
66353;SDS011;53150;48.296;16.452;2023-03-01T01:55:31;26.75;;;12.15;;
66353;SDS011;53150;48.296;16.452;2023-03-01T01:57:58;26.30;;;13.90;;
66353;SDS011;53150;48.296;16.452;2023-03-01T02:00:29;25.55;;;12.35;;
66353;SDS011;53150;48.296;16.452;2023-03-01T02:08:25;25.63;;;13.48;;
66353;SDS011;53150;48.296;16.452;2023-03-01T02:10:52;26.75;;;13.38;;
66353;SDS011;53150;48.296;16.452;2023-03-01T02:13:20;23.85;;;12.75;;
66353;SDS011;53150;48.296;16.452;2023-03-01T02:15:46;24.58;;;13.00;;
66353;SDS011;53150;48.296;16.452;2023-03-01T02:18:13;25.52;;;13.30;;
66353;SDS011;53150;48.296;16.452;2023-03-01T02:23:06;28.50;;;13.73;;
66353;SDS011;53150;48.296;16.452;2023-03-01T02:25:39;24.55;;;12.88;;
66353;SDS011;53150;48.296;16.452;2023-03-01T02:30:33;24.65;;;13.02;;
66353;SDS011;53150;48.296;16.452;2023-03-01T02:32:59;25.40;;;13.70;;
66353;SDS011;53150;48.296;16.452;2023-03-01T02:35:33;26.83;;;12.95;;
66353;SDS011;53150;48.296;16.452;2023-03-01T02:38:01;27.33;;;13.80;;
66353;SDS011;53150;48.296;16.452;2023-03-01T02:40:28;24.45;;;12.68;;
66353;SDS011;53150;48.296;16.452;2023-03-01T02:42:58;27.27;;;14.18;;
66353;SDS011;53150;48.296;16.452;2023-03-01T02:45:24;27.33;;;14.40;;
66353;SDS011;53150;48.296;16.452;2023-03-01T02:47:53;27.35;;;13.82;;
66353;SDS011;53150;48.296;16.452;2023-03-01T02:55:21;29.45;;;14.27;;
66353;SDS011;53150;48.296;16.452;2023-03-01T02:57:49;30.65;;;14.30;;
66353;SDS011;53150;48.296;16.452;2023-03-01T03:00:20;25.00;;;14.05;;
66353;SDS011;53150;48.296;16.452;2023-03-01T03:06:24;28.15;;;14.90;;
66353;SDS011;53150;48.296;16.452;2023-03-01T03:08:50;26.02;;;14.05;;
66353;SDS011;53150;48.296;16.452;2023-03-01T03:11:16;25.77;;;13.52;;
66353;SDS011;53150;48.296;16.452;2023-03-01T03:13:42;31.63;;;14.45;;
66353;SDS011;53150;48.296;16.452;2023-03-01T03:16:13;31.13;;;15.30;;
66353;SDS011;53150;48.296;16.452;2023-03-01T03:18:39;29.88;;;15.02;;
66353;SDS011;53150;48.296;16.452;2023-03-01T03:21:08;31.85;;;14.68;;
66353;SDS011;53150;48.296;16.452;2023-03-01T03:23:35;28.02;;;15.13;;
66353;SDS011;53150;48.296;16.452;2023-03-01T03:26:01;28.90;;;15.88;;
66353;SDS011;53150;48.296;16.452;2023-03-01T03:28:29;27.98;;;16.95;;
66353;SDS011;53150;48.296;16.452;2023-03-01T03:30:55;31.17;;;15.98;;
66353;SDS011;53150;48.296;16.452;2023-03-01T03:33:21;34.28;;;16.58;;
66353;SDS011;53150;48.296;16.452;2023-03-01T03:35:49;29.58;;;15.52;;
66353;SDS011;53150;48.296;16.452;2023-03-01T03:38:17;32.90;;;16.17;;
66353;SDS011;53150;48.296;16.452;2023-03-01T03:41:06;34.47;;;17.30;;
66353;SDS011;53150;48.296;16.452;2023-03-01T03:43:33;29.50;;;15.70;;
66353;SDS011;53150;48.296;16.452;2023-03-01T03:45:59;35.22;;;15.90;;
66353;SDS011;53150;48.296;16.452;2023-03-01T03:48:26;34.25;;;15.20;;
66353;SDS011;53150;48.296;16.452;2023-03-01T03:50:53;32.60;;;16.80;;
66353;SDS011;53150;48.296;16.452;2023-03-01T03:53:19;36.95;;;17.20;;
66353;SDS011;53150;48.296;16.452;2023-03-01T03:55:46;37.42;;;16.00;;
66353;SDS011;53150;48.296;16.452;2023-03-01T03:58:14;28.50;;;17.08;;
66353;SDS011;53150;48.296;16.452;2023-03-01T04:00:41;31.52;;;16.92;;
66353;SDS011;53150;48.296;16.452;2023-03-01T04:03:08;36.58;;;16.55;;
66353;SDS011;53150;48.296;16.452;2023-03-01T04:05:35;31.83;;;16.20;;
66353;SDS011;53150;48.296;16.452;2023-03-01T04:08:01;30.27;;;16.75;;
66353;SDS011;53150;48.296;16.452;2023-03-01T04:10:35;27.48;;;15.63;;
66353;SDS011;53150;48.296;16.452;2023-03-01T04:13:02;31.23;;;15.57;;
66353;SDS011;53150;48.296;16.452;2023-03-01T04:15:28;31.00;;;15.77;;
66353;SDS011;53150;48.296;16.452;2023-03-01T04:17:54;32.83;;;15.82;;
66353;SDS011;53150;48.296;16.452;2023-03-01T04:20:34;32.90;;;15.88;;
66353;SDS011;53150;48.296;16.452;2023-03-01T04:26:03;26.75;;;14.70;;
66353;SDS011;53150;48.296;16.452;2023-03-01T04:28:31;32.20;;;16.23;;
66353;SDS011;53150;48.296;16.452;2023-03-01T04:31:08;29.60;;;15.35;;
66353;SDS011;53150;48.296;16.452;2023-03-01T04:33:46;29.63;;;14.60;;
66353;SDS011;53150;48.296;16.452;2023-03-01T04:36:12;29.00;;;16.73;;
66353;SDS011;53150;48.296;16.452;2023-03-01T04:38:39;30.00;;;15.77;;
66353;SDS011;53150;48.296;16.452;2023-03-01T04:41:06;28.45;;;16.08;;
66353;SDS011;53150;48.296;16.452;2023-03-01T04:43:32;30.17;;;15.82;;
66353;SDS011;53150;48.296;16.452;2023-03-01T04:46:02;29.83;;;16.15;;
66353;SDS011;53150;48.296;16.452;2023-03-01T04:48:30;26.63;;;13.93;;
66353;SDS011;53150;48.296;16.452;2023-03-01T04:50:56;29.17;;;15.70;;
66353;SDS011;53150;48.296;16.452;2023-03-01T04:53:23;30.38;;;16.45;;
66353;SDS011;53150;48.296;16.452;2023-03-01T04:55:49;28.42;;;15.73;;
66353;SDS011;53150;48.296;16.452;2023-03-01T04:58:15;30.77;;;16.25;;
66353;SDS011;53150;48.296;16.452;2023-03-01T05:00:41;31.02;;;15.43;;
66353;SDS011;53150;48.296;16.452;2023-03-01T05:03:08;31.60;;;16.83;;
66353;SDS011;53150;48.296;16.452;2023-03-01T05:05:35;29.75;;;14.45;;
66353;SDS011;53150;48.296;16.452;2023-03-01T05:08:03;29.67;;;15.45;;
66353;SDS011;53150;48.296;16.452;2023-03-01T05:10:30;30.17;;;14.77;;
66353;SDS011;53150;48.296;16.452;2023-03-01T05:12:57;29.88;;;15.73;;
66353;SDS011;53150;48.296;16.452;2023-03-01T05:15:24;28.60;;;15.55;;
66353;SDS011;53150;48.296;16.452;2023-03-01T05:20:54;31.75;;;15.52;;
66353;SDS011;53150;48.296;16.452;2023-03-01T05:23:23;25.35;;;13.40;;
66353;SDS011;53150;48.296;16.452;2023-03-01T05:25:49;27.77;;;15.55;;
66353;SDS011;53150;48.296;16.452;2023-03-01T05:28:17;27.10;;;15.23;;
66353;SDS011;53150;48.296;16.452;2023-03-01T05:30:44;29.67;;;15.02;;
66353;SDS011;53150;48.296;16.452;2023-03-01T05:33:10;31.00;;;15.70;;
66353;SDS011;53150;48.296;16.452;2023-03-01T05:35:41;32.45;;;15.57;;
66353;SDS011;53150;48.296;16.452;2023-03-01T05:38:11;29.40;;;15.50;;
66353;SDS011;53150;48.296;16.452;2023-03-01T05:40:44;27.42;;;15.63;;
66353;SDS011;53150;48.296;16.452;2023-03-01T05:43:10;28.50;;;14.63;;
66353;SDS011;53150;48.296;16.452;2023-03-01T05:45:37;28.35;;;14.60;;
66353;SDS011;53150;48.296;16.452;2023-03-01T05:48:03;29.30;;;14.68;;
66353;SDS011;53150;48.296;16.452;2023-03-01T05:50:31;26.92;;;15.00;;
66353;SDS011;53150;48.296;16.452;2023-03-01T05:55:24;29.67;;;14.52;;
66353;SDS011;53150;48.296;16.452;2023-03-01T05:57:50;28.92;;;15.02;;
66353;SDS011;53150;48.296;16.452;2023-03-01T06:00:17;26.00;;;14.18;;
66353;SDS011;53150;48.296;16.452;2023-03-01T06:02:44;25.20;;;13.32;;
66353;SDS011;53150;48.296;16.452;2023-03-01T06:05:11;28.63;;;15.13;;
66353;SDS011;53150;48.296;16.452;2023-03-01T06:07:37;30.38;;;14.60;;
66353;SDS011;53150;48.296;16.452;2023-03-01T06:10:03;26.30;;;14.50;;
66353;SDS011;53150;48.296;16.452;2023-03-01T06:12:30;28.10;;;15.57;;
66353;SDS011;53150;48.296;16.452;2023-03-01T06:14:56;25.67;;;13.15;;
66353;SDS011;53150;48.296;16.452;2023-03-01T06:17:22;28.08;;;15.27;;
66353;SDS011;53150;48.296;16.452;2023-03-01T06:19:48;30.15;;;16.50;;
66353;SDS011;53150;48.296;16.452;2023-03-01T06:22:14;26.15;;;14.40;;
66353;SDS011;53150;48.296;16.452;2023-03-01T06:24:40;25.27;;;14.98;;
66353;SDS011;53150;48.296;16.452;2023-03-01T06:27:06;27.63;;;15.02;;
66353;SDS011;53150;48.296;16.452;2023-03-01T06:29:33;32.03;;;15.55;;
66353;SDS011;53150;48.296;16.452;2023-03-01T06:31:59;27.58;;;15.25;;
66353;SDS011;53150;48.296;16.452;2023-03-01T06:34:25;29.77;;;16.67;;
66353;SDS011;53150;48.296;16.452;2023-03-01T06:36:51;29.42;;;15.32;;
66353;SDS011;53150;48.296;16.452;2023-03-01T06:39:17;28.13;;;15.60;;
66353;SDS011;53150;48.296;16.452;2023-03-01T06:41:43;28.90;;;15.57;;
66353;SDS011;53150;48.296;16.452;2023-03-01T06:44:09;28.52;;;15.50;;
66353;SDS011;53150;48.296;16.452;2023-03-01T06:46:35;27.83;;;14.95;;
66353;SDS011;53150;48.296;16.452;2023-03-01T06:49:01;31.45;;;15.30;;
66353;SDS011;53150;48.296;16.452;2023-03-01T06:51:32;29.55;;;16.38;;
66353;SDS011;53150;48.296;16.452;2023-03-01T06:53:58;28.67;;;15.68;;
66353;SDS011;53150;48.296;16.452;2023-03-01T06:56:24;35.33;;;17.08;;
66353;SDS011;53150;48.296;16.452;2023-03-01T06:58:50;29.42;;;15.00;;
66353;SDS011;53150;48.296;16.452;2023-03-01T07:01:16;29.08;;;16.02;;
66353;SDS011;53150;48.296;16.452;2023-03-01T07:03:42;29.90;;;15.65;;
66353;SDS011;53150;48.296;16.452;2023-03-01T07:06:09;27.35;;;16.20;;
66353;SDS011;53150;48.296;16.452;2023-03-01T07:08:35;31.05;;;17.30;;
66353;SDS011;53150;48.296;16.452;2023-03-01T07:11:01;30.83;;;17.08;;
66353;SDS011;53150;48.296;16.452;2023-03-01T07:13:28;24.25;;;15.52;;
66353;SDS011;53150;48.296;16.452;2023-03-01T07:15:54;29.40;;;16.10;;
66353;SDS011;53150;48.296;16.452;2023-03-01T07:18:21;30.13;;;15.60;;
66353;SDS011;53150;48.296;16.452;2023-03-01T07:20:48;32.95;;;15.88;;
66353;SDS011;53150;48.296;16.452;2023-03-01T07:23:14;30.42;;;17.63;;
66353;SDS011;53150;48.296;16.452;2023-03-01T07:25:40;32.53;;;16.73;;
66353;SDS011;53150;48.296;16.452;2023-03-01T07:28:06;30.75;;;16.73;;
66353;SDS011;53150;48.296;16.452;2023-03-01T07:30:32;31.10;;;16.38;;
66353;SDS011;53150;48.296;16.452;2023-03-01T07:32:58;27.58;;;16.00;;
66353;SDS011;53150;48.296;16.452;2023-03-01T07:35:25;33.42;;;16.40;;
66353;SDS011;53150;48.296;16.452;2023-03-01T07:37:51;29.42;;;16.88;;
66353;SDS011;53150;48.296;16.452;2023-03-01T07:40:18;31.77;;;17.50;;
66353;SDS011;53150;48.296;16.452;2023-03-01T07:42:44;33.13;;;16.63;;
66353;SDS011;53150;48.296;16.452;2023-03-01T07:45:10;29.33;;;15.55;;
66353;SDS011;53150;48.296;16.452;2023-03-01T07:47:36;28.35;;;15.43;;
66353;SDS011;53150;48.296;16.452;2023-03-01T07:50:02;27.52;;;14.88;;
66353;SDS011;53150;48.296;16.452;2023-03-01T07:52:29;30.70;;;15.90;;
66353;SDS011;53150;48.296;16.452;2023-03-01T07:54:55;28.13;;;15.60;;
66353;SDS011;53150;48.296;16.452;2023-03-01T07:57:22;30.13;;;16.35;;
66353;SDS011;53150;48.296;16.452;2023-03-01T07:59:48;29.35;;;17.23;;
66353;SDS011;53150;48.296;16.452;2023-03-01T08:02:14;27.58;;;16.40;;
66353;SDS011;53150;48.296;16.452;2023-03-01T08:04:40;31.75;;;17.15;;
66353;SDS011;53150;48.296;16.452;2023-03-01T08:07:06;29.48;;;16.00;;
66353;SDS011;53150;48.296;16.452;2023-03-01T08:09:34;29.75;;;16.50;;
66353;SDS011;53150;48.296;16.452;2023-03-01T08:12:00;29.55;;;14.95;;
66353;SDS011;53150;48.296;16.452;2023-03-01T08:14:26;29.67;;;15.30;;
66353;SDS011;53150;48.296;16.452;2023-03-01T08:16:52;33.08;;;16.85;;
66353;SDS011;53150;48.296;16.452;2023-03-01T08:22:23;37.33;;;18.67;;
66353;SDS011;53150;48.296;16.452;2023-03-01T08:24:49;33.60;;;19.65;;
66353;SDS011;53150;48.296;16.452;2023-03-01T08:27:16;38.13;;;21.52;;
66353;SDS011;53150;48.296;16.452;2023-03-01T08:29:42;29.15;;;18.60;;
66353;SDS011;53150;48.296;16.452;2023-03-01T08:32:08;32.95;;;18.20;;
66353;SDS011;53150;48.296;16.452;2023-03-01T08:34:34;30.52;;;16.83;;
66353;SDS011;53150;48.296;16.452;2023-03-01T08:37:00;36.92;;;19.05;;
66353;SDS011;53150;48.296;16.452;2023-03-01T08:39:27;35.10;;;17.90;;
66353;SDS011;53150;48.296;16.452;2023-03-01T08:41:53;32.88;;;17.98;;
66353;SDS011;53150;48.296;16.452;2023-03-01T08:44:19;31.38;;;18.17;;
66353;SDS011;53150;48.296;16.452;2023-03-01T08:46:46;30.77;;;16.38;;
66353;SDS011;53150;48.296;16.452;2023-03-01T08:49:14;33.13;;;18.08;;
66353;SDS011;53150;48.296;16.452;2023-03-01T08:51:40;32.10;;;17.58;;
66353;SDS011;53150;48.296;16.452;2023-03-01T08:54:07;28.02;;;16.42;;
66353;SDS011;53150;48.296;16.452;2023-03-01T08:56:35;27.88;;;17.30;;
66353;SDS011;53150;48.296;16.452;2023-03-01T08:59:02;28.52;;;16.63;;
66353;SDS011;53150;48.296;16.452;2023-03-01T09:01:28;33.00;;;17.33;;
66353;SDS011;53150;48.296;16.452;2023-03-01T09:03:54;32.38;;;17.30;;
66353;SDS011;53150;48.296;16.452;2023-03-01T09:06:21;28.75;;;17.25;;
66353;SDS011;53150;48.296;16.452;2023-03-01T09:08:47;29.00;;;16.90;;
66353;SDS011;53150;48.296;16.452;2023-03-01T09:11:18;27.50;;;17.35;;
66353;SDS011;53150;48.296;16.452;2023-03-01T09:13:45;30.88;;;18.40;;
66353;SDS011;53150;48.296;16.452;2023-03-01T09:16:11;32.42;;;16.63;;
66353;SDS011;53150;48.296;16.452;2023-03-01T09:18:38;29.30;;;16.85;;
66353;SDS011;53150;48.296;16.452;2023-03-01T09:21:12;30.15;;;16.70;;
66353;SDS011;53150;48.296;16.452;2023-03-01T09:23:39;30.75;;;16.35;;
66353;SDS011;53150;48.296;16.452;2023-03-01T09:26:06;28.92;;;17.00;;
66353;SDS011;53150;48.296;16.452;2023-03-01T09:28:34;32.63;;;16.77;;
66353;SDS011;53150;48.296;16.452;2023-03-01T09:31:00;25.98;;;15.10;;
66353;SDS011;53150;48.296;16.452;2023-03-01T09:33:27;26.95;;;16.25;;
66353;SDS011;53150;48.296;16.452;2023-03-01T09:36:03;28.95;;;15.60;;
66353;SDS011;53150;48.296;16.452;2023-03-01T09:38:30;26.15;;;15.23;;
66353;SDS011;53150;48.296;16.452;2023-03-01T09:40:56;30.63;;;17.05;;
66353;SDS011;53150;48.296;16.452;2023-03-01T09:46:08;27.75;;;16.15;;
66353;SDS011;53150;48.296;16.452;2023-03-01T09:49:17;29.75;;;15.90;;
66353;SDS011;53150;48.296;16.452;2023-03-01T09:51:31;32.88;;;16.58;;
66353;SDS011;53150;48.296;16.452;2023-03-01T09:53:57;28.80;;;16.60;;
66353;SDS011;53150;48.296;16.452;2023-03-01T10:04:26;29.05;;;16.25;;
66353;SDS011;53150;48.296;16.452;2023-03-01T10:09:38;34.95;;;18.02;;
66353;SDS011;53150;48.296;16.452;2023-03-01T10:12:08;39.63;;;19.13;;
66353;SDS011;53150;48.296;16.452;2023-03-01T10:17:04;25.20;;;15.32;;
66353;SDS011;53150;48.296;16.452;2023-03-01T10:19:46;25.77;;;15.65;;
66353;SDS011;53150;48.296;16.452;2023-03-01T10:22:13;31.42;;;16.92;;
66353;SDS011;53150;48.296;16.452;2023-03-01T10:24:40;29.75;;;15.20;;
66353;SDS011;53150;48.296;16.452;2023-03-01T10:27:53;26.33;;;16.85;;
66353;SDS011;53150;48.296;16.452;2023-03-01T10:30:07;25.05;;;14.00;;
66353;SDS011;53150;48.296;16.452;2023-03-01T10:32:36;29.73;;;16.80;;
66353;SDS011;53150;48.296;16.452;2023-03-01T10:35:14;24.25;;;14.65;;
66353;SDS011;53150;48.296;16.452;2023-03-01T10:37:46;30.75;;;16.17;;
66353;SDS011;53150;48.296;16.452;2023-03-01T10:40:21;24.92;;;13.23;;
66353;SDS011;53150;48.296;16.452;2023-03-01T10:42:48;24.58;;;14.00;;
66353;SDS011;53150;48.296;16.452;2023-03-01T10:45:36;22.85;;;14.25;;
66353;SDS011;53150;48.296;16.452;2023-03-01T10:50:46;24.70;;;12.65;;
66353;SDS011;53150;48.296;16.452;2023-03-01T10:55:56;20.73;;;12.15;;
66353;SDS011;53150;48.296;16.452;2023-03-01T10:58:22;20.48;;;11.55;;
66353;SDS011;53150;48.296;16.452;2023-03-01T11:01:05;21.77;;;12.25;;
66353;SDS011;53150;48.296;16.452;2023-03-01T11:03:32;23.58;;;13.40;;
66353;SDS011;53150;48.296;16.452;2023-03-01T11:06:00;21.40;;;12.50;;
66353;SDS011;53150;48.296;16.452;2023-03-01T11:11:06;19.77;;;12.55;;
66353;SDS011;53150;48.296;16.452;2023-03-01T11:13:33;22.45;;;13.05;;
66353;SDS011;53150;48.296;16.452;2023-03-01T11:16:00;22.63;;;12.45;;
66353;SDS011;53150;48.296;16.452;2023-03-01T11:18:26;21.67;;;12.43;;
66353;SDS011;53150;48.296;16.452;2023-03-01T11:20:55;19.58;;;11.82;;
66353;SDS011;53150;48.296;16.452;2023-03-01T11:23:22;22.17;;;11.35;;
66353;SDS011;53150;48.296;16.452;2023-03-01T11:25:51;16.60;;;11.30;;
66353;SDS011;53150;48.296;16.452;2023-03-01T11:28:20;21.67;;;11.43;;
66353;SDS011;53150;48.296;16.452;2023-03-01T11:30:50;20.00;;;12.02;;
66353;SDS011;53150;48.296;16.452;2023-03-01T11:36:05;19.50;;;10.50;;
66353;SDS011;53150;48.296;16.452;2023-03-01T11:38:34;17.52;;;10.18;;
66353;SDS011;53150;48.296;16.452;2023-03-01T11:51:24;22.08;;;12.15;;
66353;SDS011;53150;48.296;16.452;2023-03-01T11:53:56;19.55;;;11.25;;
66353;SDS011;53150;48.296;16.452;2023-03-01T11:56:31;19.02;;;11.18;;
66353;SDS011;53150;48.296;16.452;2023-03-01T12:04:22;20.55;;;10.98;;
66353;SDS011;53150;48.296;16.452;2023-03-01T12:12:01;22.52;;;12.20;;
66353;SDS011;53150;48.296;16.452;2023-03-01T12:22:35;18.20;;;10.40;;
66353;SDS011;53150;48.296;16.452;2023-03-01T12:25:08;19.63;;;10.25;;
66353;SDS011;53150;48.296;16.452;2023-03-01T12:30:50;15.93;;;10.10;;
66353;SDS011;53150;48.296;16.452;2023-03-01T12:41:27;18.83;;;10.57;;
66353;SDS011;53150;48.296;16.452;2023-03-01T12:44:03;20.45;;;10.63;;
66353;SDS011;53150;48.296;16.452;2023-03-01T12:49:12;21.17;;;11.73;;
66353;SDS011;53150;48.296;16.452;2023-03-01T12:51:39;17.58;;;10.77;;
66353;SDS011;53150;48.296;16.452;2023-03-01T12:54:15;20.60;;;12.10;;
66353;SDS011;53150;48.296;16.452;2023-03-01T12:56:45;18.10;;;12.82;;
66353;SDS011;53150;48.296;16.452;2023-03-01T12:59:39;19.50;;;12.03;;
66353;SDS011;53150;48.296;16.452;2023-03-01T13:02:05;19.65;;;13.02;;
66353;SDS011;53150;48.296;16.452;2023-03-01T13:07:14;23.10;;;12.80;;
66353;SDS011;53150;48.296;16.452;2023-03-01T13:09:45;19.48;;;12.73;;
66353;SDS011;53150;48.296;16.452;2023-03-01T13:14:58;21.48;;;12.50;;
66353;SDS011;53150;48.296;16.452;2023-03-01T13:33:15;21.25;;;14.15;;
66353;SDS011;53150;48.296;16.452;2023-03-01T13:48:20;25.48;;;15.27;;
66353;SDS011;53150;48.296;16.452;2023-03-01T13:50:55;25.70;;;15.38;;
66353;SDS011;53150;48.296;16.452;2023-03-01T13:53:25;20.90;;;12.68;;
66353;SDS011;53150;48.296;16.452;2023-03-01T13:55:55;21.95;;;13.23;;
66353;SDS011;53150;48.296;16.452;2023-03-01T13:58:29;22.80;;;12.85;;
66353;SDS011;53150;48.296;16.452;2023-03-01T14:01:03;23.30;;;14.32;;
66353;SDS011;53150;48.296;16.452;2023-03-01T14:03:30;23.70;;;13.60;;
66353;SDS011;53150;48.296;16.452;2023-03-01T14:05:58;23.02;;;12.77;;
66353;SDS011;53150;48.296;16.452;2023-03-01T14:08:26;21.27;;;12.65;;
66353;SDS011;53150;48.296;16.452;2023-03-01T14:14:01;21.98;;;13.07;;
66353;SDS011;53150;48.296;16.452;2023-03-01T14:19:06;19.90;;;12.70;;
66353;SDS011;53150;48.296;16.452;2023-03-01T14:21:34;20.58;;;12.48;;
66353;SDS011;53150;48.296;16.452;2023-03-01T14:24:01;20.80;;;12.85;;
66353;SDS011;53150;48.296;16.452;2023-03-01T14:26:27;21.13;;;12.45;;
66353;SDS011;53150;48.296;16.452;2023-03-01T14:28:53;23.38;;;13.18;;
66353;SDS011;53150;48.296;16.452;2023-03-01T14:31:31;18.80;;;12.32;;
66353;SDS011;53150;48.296;16.452;2023-03-01T14:33:58;22.02;;;13.43;;
66353;SDS011;53150;48.296;16.452;2023-03-01T14:36:32;20.60;;;12.02;;
66353;SDS011;53150;48.296;16.452;2023-03-01T14:38:58;20.27;;;12.43;;
66353;SDS011;53150;48.296;16.452;2023-03-01T14:41:30;21.15;;;13.07;;
66353;SDS011;53150;48.296;16.452;2023-03-01T14:43:57;19.05;;;12.80;;
66353;SDS011;53150;48.296;16.452;2023-03-01T14:48:53;22.42;;;12.95;;
66353;SDS011;53150;48.296;16.452;2023-03-01T14:51:20;22.02;;;13.82;;
66353;SDS011;53150;48.296;16.452;2023-03-01T14:53:46;20.63;;;12.63;;
66353;SDS011;53150;48.296;16.452;2023-03-01T14:56:13;22.50;;;12.55;;
66353;SDS011;53150;48.296;16.452;2023-03-01T14:58:42;19.33;;;12.15;;
66353;SDS011;53150;48.296;16.452;2023-03-01T15:01:10;20.15;;;12.00;;
66353;SDS011;53150;48.296;16.452;2023-03-01T15:03:42;19.35;;;11.82;;
66353;SDS011;53150;48.296;16.452;2023-03-01T15:06:08;18.80;;;12.20;;
66353;SDS011;53150;48.296;16.452;2023-03-01T15:08:35;19.00;;;11.30;;
66353;SDS011;53150;48.296;16.452;2023-03-01T15:11:17;23.15;;;12.63;;
66353;SDS011;53150;48.296;16.452;2023-03-01T15:13:45;20.85;;;12.27;;
66353;SDS011;53150;48.296;16.452;2023-03-01T15:16:12;21.70;;;12.07;;
66353;SDS011;53150;48.296;16.452;2023-03-01T15:18:43;19.95;;;10.90;;
66353;SDS011;53150;48.296;16.452;2023-03-01T15:21:15;19.67;;;11.25;;
66353;SDS011;53150;48.296;16.452;2023-03-01T15:23:41;20.70;;;11.40;;
66353;SDS011;53150;48.296;16.452;2023-03-01T15:26:17;18.40;;;12.43;;
66353;SDS011;53150;48.296;16.452;2023-03-01T15:28:49;18.55;;;11.32;;
66353;SDS011;53150;48.296;16.452;2023-03-01T15:31:22;23.30;;;12.55;;
66353;SDS011;53150;48.296;16.452;2023-03-01T15:33:49;23.23;;;13.38;;
66353;SDS011;53150;48.296;16.452;2023-03-01T15:38:57;22.08;;;12.70;;
66353;SDS011;53150;48.296;16.452;2023-03-01T15:41:32;21.60;;;12.45;;
66353;SDS011;53150;48.296;16.452;2023-03-01T15:43:59;22.52;;;14.02;;
66353;SDS011;53150;48.296;16.452;2023-03-01T15:48:52;23.58;;;14.88;;
66353;SDS011;53150;48.296;16.452;2023-03-01T15:51:22;23.10;;;15.35;;
66353;SDS011;53150;48.296;16.452;2023-03-01T15:53:50;27.27;;;15.80;;
66353;SDS011;53150;48.296;16.452;2023-03-01T15:56:16;24.80;;;15.30;;
66353;SDS011;53150;48.296;16.452;2023-03-01T15:58:42;27.48;;;15.38;;
66353;SDS011;53150;48.296;16.452;2023-03-01T16:01:11;28.33;;;16.67;;
66353;SDS011;53150;48.296;16.452;2023-03-01T16:03:38;27.73;;;16.23;;
66353;SDS011;53150;48.296;16.452;2023-03-01T16:06:04;28.00;;;15.98;;
66353;SDS011;53150;48.296;16.452;2023-03-01T16:08:30;26.65;;;14.68;;
66353;SDS011;53150;48.296;16.452;2023-03-01T16:10:56;27.67;;;14.73;;
66353;SDS011;53150;48.296;16.452;2023-03-01T16:13:22;24.20;;;14.93;;
66353;SDS011;53150;48.296;16.452;2023-03-01T16:15:50;30.60;;;16.88;;
66353;SDS011;53150;48.296;16.452;2023-03-01T16:18:16;25.52;;;16.17;;
66353;SDS011;53150;48.296;16.452;2023-03-01T16:20:42;24.23;;;15.80;;
66353;SDS011;53150;48.296;16.452;2023-03-01T16:23:10;28.25;;;16.38;;
66353;SDS011;53150;48.296;16.452;2023-03-01T16:25:36;23.92;;;15.52;;
66353;SDS011;53150;48.296;16.452;2023-03-01T16:28:03;24.25;;;14.35;;
66353;SDS011;53150;48.296;16.452;2023-03-01T16:30:33;21.25;;;13.18;;
66353;SDS011;53150;48.296;16.452;2023-03-01T16:33:00;25.23;;;15.25;;
66353;SDS011;53150;48.296;16.452;2023-03-01T16:35:26;24.67;;;13.82;;
66353;SDS011;53150;48.296;16.452;2023-03-01T16:37:54;25.45;;;13.68;;
66353;SDS011;53150;48.296;16.452;2023-03-01T16:40:24;23.00;;;13.48;;
66353;SDS011;53150;48.296;16.452;2023-03-01T16:42:51;22.58;;;13.77;;